createdAt,value
2023-04-11T00:00:11.853Z,1.42
2023-04-11T00:02:41.262Z,1.40
2023-04-11T00:05:08.342Z,1.42
2023-04-11T00:07:35.351Z,1.40
2023-04-11T00:10:02.408Z,1.85
2023-04-11T00:12:28.991Z,1.35
2023-04-11T00:14:56.141Z,1.25
2023-04-11T00:17:23.700Z,1.73
2023-04-11T00:19:53.210Z,1.75
2023-04-11T00:22:19.702Z,1.50
2023-04-11T00:24:46.222Z,1.45
2023-04-11T00:27:12.647Z,1.73
2023-04-11T00:29:39.392Z,1.50
2023-04-11T00:32:07.023Z,1.60
2023-04-11T00:34:34.303Z,1.30
2023-04-11T00:37:07.058Z,1.73
2023-04-11T00:39:35.200Z,1.30
2023-04-11T00:42:08.631Z,1.38
2023-04-11T00:44:36.974Z,1.70
2023-04-11T00:47:13.080Z,1.50
2023-04-11T00:49:40.914Z,1.55
2023-04-11T00:52:08.072Z,2.03
2023-04-11T00:54:34.764Z,1.80
2023-04-11T00:57:02.535Z,2.03
2023-04-11T00:59:30.277Z,1.60
2023-04-11T01:01:58.767Z,1.77
2023-04-11T01:04:26.193Z,1.75
2023-04-11T01:06:56.390Z,1.70
2023-04-11T01:09:25.847Z,1.67
2023-04-11T01:11:53.335Z,1.80
2023-04-11T01:14:20.638Z,1.88
2023-04-11T01:16:48.600Z,1.70
2023-04-11T01:19:22.165Z,1.55
2023-04-11T01:21:50.838Z,1.73
2023-04-11T01:26:43.782Z,1.90
2023-04-11T01:29:10.375Z,1.98
2023-04-11T01:31:37.568Z,1.60
2023-04-11T01:34:04.528Z,1.40
2023-04-11T01:36:32.284Z,1.73
2023-04-11T01:38:59.225Z,1.50
2023-04-11T01:41:27.077Z,1.80
2023-04-11T01:43:54.126Z,1.70
2023-04-11T01:46:22.018Z,1.50
2023-04-11T01:48:50.555Z,1.50
2023-04-11T01:53:43.549Z,1.40
2023-04-11T01:56:10.798Z,1.65
2023-04-11T01:58:38.064Z,1.50
2023-04-11T02:01:05.506Z,1.75
2023-04-11T02:03:32.029Z,1.60
2023-04-11T02:05:58.939Z,1.50
2023-04-11T02:08:25.381Z,1.45
2023-04-11T02:10:51.733Z,2.00
2023-04-11T02:13:18.250Z,1.83
2023-04-11T02:15:50.528Z,1.50
2023-04-11T02:18:16.977Z,1.50
2023-04-11T02:20:43.390Z,2.00
2023-04-11T02:23:09.875Z,1.70
2023-04-11T02:25:37.834Z,1.70
2023-04-11T02:28:06.154Z,1.55
2023-04-11T02:30:33.858Z,1.58
2023-04-11T02:33:01.205Z,1.60
2023-04-11T02:35:27.831Z,1.70
2023-04-11T02:37:54.266Z,1.58
2023-04-11T02:40:20.731Z,1.40
2023-04-11T02:42:47.272Z,1.60
2023-04-11T02:45:13.887Z,1.70
2023-04-11T02:47:40.330Z,1.65
2023-04-11T02:50:08.415Z,2.33
2023-04-11T02:52:34.845Z,2.00
2023-04-11T02:55:01.285Z,1.98
2023-04-11T02:57:27.959Z,1.98
2023-04-11T02:59:54.441Z,1.67
2023-04-11T03:02:26.340Z,1.90
2023-04-11T03:04:52.828Z,2.22
2023-04-11T03:07:19.222Z,2.20
2023-04-11T03:09:45.754Z,1.70
2023-04-11T03:12:12.935Z,2.08
2023-04-11T03:14:39.332Z,1.75
2023-04-11T03:17:06.955Z,2.28
2023-04-11T03:19:33.375Z,2.10
2023-04-11T03:22:00.887Z,2.20
2023-04-11T03:24:35.545Z,2.15
2023-04-11T03:27:02.875Z,2.13
2023-04-11T03:29:29.275Z,3.00
2023-04-11T03:31:55.747Z,3.30
2023-04-11T03:34:23.396Z,3.97
2023-04-11T03:36:49.855Z,3.67
2023-04-11T03:39:16.390Z,3.45
2023-04-11T03:41:42.847Z,3.00
2023-04-11T03:44:09.208Z,2.63
2023-04-11T03:46:35.686Z,2.40
2023-04-11T03:49:02.270Z,2.85
2023-04-11T03:51:28.787Z,2.35
2023-04-11T03:53:55.526Z,2.38
2023-04-11T03:56:22.022Z,2.33
2023-04-11T03:58:48.740Z,9.60
2023-04-11T04:01:15.309Z,3.13
2023-04-11T04:03:42.082Z,2.80
2023-04-11T04:06:09.015Z,2.70
2023-04-11T04:08:35.666Z,2.47
2023-04-11T04:11:02.266Z,2.65
2023-04-11T04:13:28.828Z,2.97
2023-04-11T04:15:55.408Z,2.70
2023-04-11T04:18:21.957Z,2.78
2023-04-11T04:20:49.053Z,2.53
2023-04-11T04:23:18.028Z,2.63
2023-04-11T04:25:48.265Z,3.17
2023-04-11T04:28:17.737Z,2.60
2023-04-11T04:30:50.008Z,2.35
2023-04-11T04:33:18.630Z,2.75
2023-04-11T04:38:17.852Z,2.20
2023-04-11T04:40:44.452Z,2.30
2023-04-11T04:43:18.170Z,2.15
2023-04-11T04:45:45.600Z,1.92
2023-04-11T04:48:48.483Z,2.08
2023-04-11T04:51:14.927Z,2.03
2023-04-11T04:53:41.460Z,1.83
2023-04-11T04:56:09.711Z,1.70
2023-04-11T04:58:36.479Z,2.10
2023-04-11T05:01:03.403Z,2.95
2023-04-11T05:03:34.581Z,2.42
2023-04-11T05:06:02.728Z,3.00
2023-04-11T05:08:29.849Z,3.13
2023-04-11T05:10:56.243Z,2.72
2023-04-11T05:13:54.419Z,2.65
2023-04-11T05:18:56.944Z,2.50
2023-04-11T05:21:23.576Z,2.35
2023-04-11T05:23:50.070Z,2.28
2023-04-11T05:26:16.428Z,4.13
2023-04-11T05:28:43.081Z,2.97
2023-04-11T05:31:11.715Z,2.97
2023-04-11T05:33:40.126Z,2.92
2023-04-11T05:36:07.305Z,2.60
2023-04-11T05:38:34.359Z,2.88
2023-04-11T05:41:00.991Z,3.10
2023-04-11T05:43:27.496Z,2.80
2023-04-11T05:45:53.961Z,3.17
2023-04-11T05:48:20.458Z,2.42
2023-04-11T05:55:01.288Z,2.60
2023-04-11T05:57:30.766Z,2.90
2023-04-11T05:59:57.303Z,2.85
2023-04-11T06:02:23.862Z,2.70
2023-04-11T06:04:51.074Z,2.38
2023-04-11T06:07:17.711Z,2.60
2023-04-11T06:09:44.303Z,3.08
2023-04-11T06:12:11.407Z,2.58
2023-04-11T06:14:40.605Z,3.42
2023-04-11T06:17:07.439Z,3.08
2023-04-11T06:19:34.005Z,3.97
2023-04-11T06:22:00.432Z,3.47
2023-04-11T06:24:39.519Z,3.38
2023-04-11T06:27:09.270Z,3.38
2023-04-11T06:29:43.656Z,3.55
2023-04-11T06:32:12.001Z,3.75
2023-04-11T06:34:39.582Z,3.92
2023-04-11T06:37:33.493Z,3.65
2023-04-11T06:40:04.440Z,3.45
2023-04-11T06:42:31.093Z,3.30
2023-04-11T06:44:57.539Z,3.35
2023-04-11T06:47:23.970Z,2.72
2023-04-11T06:49:50.500Z,2.85
2023-04-11T06:52:17.012Z,2.63
2023-04-11T06:54:43.471Z,2.60
2023-04-11T06:57:10.503Z,2.67
2023-04-11T06:59:38.285Z,2.20
2023-04-11T07:02:04.891Z,2.33
2023-04-11T07:04:31.583Z,2.45
2023-04-11T07:06:58.141Z,2.67
2023-04-11T07:09:24.606Z,2.70
2023-04-11T07:11:51.142Z,3.53
2023-04-11T07:14:18.264Z,3.40
2023-04-11T07:16:44.806Z,3.75
2023-04-11T07:19:11.252Z,3.58
2023-04-11T07:21:39.468Z,3.67
2023-04-11T07:24:07.091Z,3.30
2023-04-11T07:26:35.850Z,2.92
2023-04-11T07:29:02.714Z,3.35
2023-04-11T07:31:29.217Z,3.90
2023-04-11T07:33:55.943Z,4.50
2023-04-11T07:36:22.673Z,4.18
2023-04-11T07:38:49.103Z,3.90
2023-04-11T07:41:16.298Z,4.45
2023-04-11T07:43:42.793Z,7.85
2023-04-11T07:46:09.443Z,4.85
2023-04-11T07:48:35.970Z,5.00
2023-04-11T07:51:02.377Z,4.35
2023-04-11T07:53:30.909Z,4.82
2023-04-11T07:55:57.410Z,4.82
2023-04-11T07:58:23.874Z,4.25
2023-04-11T08:00:50.969Z,4.35
2023-04-11T08:03:17.715Z,4.80
2023-04-11T08:05:44.469Z,5.03
2023-04-11T08:08:10.986Z,4.45
2023-04-11T08:10:37.808Z,4.63
2023-04-11T08:13:04.243Z,4.43
2023-04-11T08:15:31.381Z,4.57
2023-04-11T08:17:57.828Z,4.25
2023-04-11T08:20:25.277Z,3.80
2023-04-11T08:22:51.868Z,3.72
2023-04-11T08:25:28.559Z,3.33
2023-04-11T08:27:55.034Z,3.60
2023-04-11T08:30:21.523Z,4.13
2023-04-11T08:32:48.244Z,4.30
2023-04-11T08:35:14.837Z,4.88
2023-04-11T08:37:41.533Z,5.28
2023-04-11T08:40:09.356Z,5.47
2023-04-11T08:42:36.349Z,4.95
2023-04-11T08:45:05.836Z,5.22
2023-04-11T08:47:32.315Z,4.80
2023-04-11T08:50:05.839Z,4.72
2023-04-11T08:52:33.552Z,4.93
2023-04-11T08:55:00.546Z,5.50
2023-04-11T08:57:31.514Z,5.25
2023-04-11T09:00:14.546Z,5.15
2023-04-11T09:03:01.741Z,5.15
2023-04-11T09:05:33.705Z,4.55
2023-04-11T09:08:02.520Z,4.50
2023-04-11T09:10:45.281Z,5.45
2023-04-11T09:13:21.970Z,5.28
2023-04-11T09:16:03.248Z,4.93
2023-04-11T09:18:37.707Z,4.97
2023-04-11T09:21:07.873Z,5.40
2023-04-11T09:24:37.676Z,4.68
2023-04-11T09:27:13.396Z,4.82
2023-04-11T09:29:42.174Z,3.92
2023-04-11T09:32:32.709Z,4.07
2023-04-11T09:35:09.923Z,4.43
2023-04-11T09:37:48.438Z,4.20
2023-04-11T09:42:43.964Z,4.07
2023-04-11T09:45:20.583Z,3.85
2023-04-11T09:47:48.424Z,4.10
2023-04-11T09:50:15.823Z,4.25
2023-04-11T09:52:44.072Z,4.38
2023-04-11T09:55:12.697Z,5.30
2023-04-11T10:00:36.038Z,3.80
2023-04-11T10:03:02.805Z,3.85
2023-04-11T10:05:30.497Z,3.38
2023-04-11T10:08:08.829Z,3.80
2023-04-11T10:10:36.439Z,3.72
2023-04-11T10:13:42.374Z,1.40
2023-04-11T10:16:17.055Z,0.70
2023-04-11T10:18:56.175Z,0.80
2023-04-11T10:21:43.946Z,0.65
2023-04-11T10:24:18.625Z,1.05
2023-04-11T10:27:01.099Z,0.80
2023-04-11T10:29:34.020Z,0.68
2023-04-11T10:32:15.987Z,0.30
2023-04-11T10:34:54.460Z,0.70
2023-04-11T10:37:30.400Z,0.63
2023-04-11T10:40:12.298Z,0.73
2023-04-11T10:42:43.259Z,0.50
2023-04-11T10:45:34.168Z,0.80
2023-04-11T10:48:08.150Z,0.90
2023-04-11T10:50:40.910Z,0.68
2023-04-11T10:53:11.133Z,0.50
2023-04-11T10:55:48.961Z,0.70
2023-04-11T10:58:19.741Z,0.50
2023-04-11T11:00:52.630Z,2.40
2023-04-11T11:03:30.579Z,0.63
2023-04-11T11:06:02.656Z,0.50
2023-04-11T11:08:31.229Z,0.40
2023-04-11T11:11:02.188Z,0.60
2023-04-11T11:13:52.096Z,0.70
2023-04-11T11:16:23.542Z,0.30
2023-04-11T11:18:56.685Z,0.50
2023-04-11T11:21:28.310Z,0.73
2023-04-11T11:24:00.430Z,0.40
2023-04-11T11:26:43.502Z,0.85
2023-04-11T11:29:13.759Z,0.90
2023-04-11T11:31:45.832Z,0.40
2023-04-11T11:34:40.912Z,0.73
2023-04-11T11:37:07.876Z,0.60
2023-04-11T11:39:35.384Z,0.50
2023-04-11T11:42:02.374Z,0.50
2023-04-11T11:44:31.073Z,0.50
2023-04-11T11:47:12.887Z,0.40
2023-04-11T11:49:52.917Z,0.40
2023-04-11T11:52:33.600Z,0.65
2023-04-11T11:55:01.607Z,0.55
2023-04-11T11:57:28.000Z,0.77
2023-04-11T11:59:56.180Z,0.50
2023-04-11T12:02:26.775Z,0.50
2023-04-11T12:05:00.831Z,0.50
2023-04-11T12:07:32.405Z,0.50
2023-04-11T12:10:03.091Z,0.65
2023-04-11T12:13:03.590Z,0.65
2023-04-11T12:15:35.481Z,0.70
2023-04-11T12:18:05.701Z,0.70
2023-04-11T12:20:32.701Z,0.65
2023-04-11T12:22:59.446Z,0.90
2023-04-11T12:25:28.981Z,1.00
2023-04-11T12:27:55.361Z,0.60
2023-04-11T12:30:22.008Z,1.45
2023-04-11T12:32:48.467Z,0.60
2023-04-11T12:35:14.928Z,0.70
2023-04-11T12:37:41.637Z,0.80
2023-04-11T12:40:30.611Z,0.80
2023-04-11T12:42:57.619Z,0.80
2023-04-11T12:45:25.116Z,0.60
2023-04-11T12:47:51.716Z,0.60
2023-04-11T12:50:29.294Z,0.88
2023-04-11T12:52:56.526Z,0.70
2023-04-11T12:55:23.572Z,0.70
2023-04-11T12:57:50.310Z,0.85
2023-04-11T13:00:17.209Z,0.70
2023-04-11T13:02:45.260Z,0.50
2023-04-11T13:05:15.919Z,0.80
2023-04-11T13:07:44.857Z,0.70
2023-04-11T13:10:11.999Z,0.65
2023-04-11T13:12:43.762Z,0.98
2023-04-11T13:15:15.329Z,0.90
2023-04-11T13:17:42.618Z,0.80
2023-04-11T13:20:11.030Z,0.50
2023-04-11T13:22:41.476Z,0.55
2023-04-11T13:25:10.364Z,0.90
2023-04-11T13:27:48.810Z,0.77
2023-04-11T13:30:53.162Z,8.20
2023-04-11T13:33:19.598Z,1.60
2023-04-11T13:35:46.012Z,1.73
2023-04-11T13:38:12.671Z,0.70
2023-04-11T13:40:41.516Z,0.70
2023-04-11T13:43:08.637Z,0.70
2023-04-11T13:45:35.186Z,0.77
2023-04-11T13:51:53.183Z,0.70
2023-04-11T13:54:19.588Z,1.30
2023-04-11T13:56:46.024Z,1.10
2023-04-11T13:59:12.529Z,0.77
2023-04-11T14:01:39.687Z,1.15
2023-04-11T14:04:06.704Z,1.10
2023-04-11T14:06:35.193Z,0.95
2023-04-11T14:09:01.614Z,1.00
2023-04-11T14:11:28.352Z,0.85
2023-04-11T14:13:55.194Z,1.00
2023-04-11T14:16:24.242Z,1.00
2023-04-11T14:18:50.841Z,0.77
2023-04-11T14:21:17.394Z,0.85
2023-04-11T14:23:43.933Z,0.90
2023-04-11T14:26:11.039Z,0.90
2023-04-11T14:28:38.442Z,0.80
2023-04-11T14:31:05.139Z,0.80
2023-04-11T14:33:32.212Z,1.10
2023-04-11T14:35:58.719Z,0.88
2023-04-11T14:38:25.349Z,1.50
2023-04-11T14:40:51.778Z,1.10
2023-04-11T14:43:18.850Z,1.20
2023-04-11T14:45:45.634Z,1.30
2023-04-11T14:48:12.116Z,1.45
2023-04-11T14:50:39.529Z,1.25
2023-04-11T14:53:06.004Z,1.17
2023-04-11T14:55:32.488Z,0.90
2023-04-11T14:57:58.895Z,1.60
2023-04-11T15:00:26.671Z,1.27
2023-04-11T15:02:56.531Z,1.33
2023-04-11T15:05:24.130Z,1.58
2023-04-11T15:07:52.885Z,2.55
2023-04-11T15:10:22.266Z,4.82
2023-04-11T15:12:48.944Z,4.07
2023-04-11T15:15:16.059Z,2.05
2023-04-11T15:17:46.108Z,1.33
2023-04-11T15:20:14.585Z,1.55
2023-04-11T15:22:45.782Z,1.35
2023-04-11T15:25:13.799Z,1.20
2023-04-11T15:27:41.334Z,1.13
2023-04-11T15:30:09.299Z,1.48
2023-04-11T15:32:36.041Z,1.60
2023-04-11T15:35:02.651Z,1.55
2023-04-11T15:37:29.108Z,1.90
2023-04-11T15:39:57.607Z,1.17
2023-04-11T15:42:24.437Z,1.95
2023-04-11T15:44:50.921Z,1.38
2023-04-11T15:47:17.441Z,1.67
2023-04-11T15:49:43.969Z,1.40
2023-04-11T15:52:11.065Z,1.20
2023-04-11T15:54:38.418Z,1.10
2023-04-11T15:57:04.812Z,1.27
2023-04-11T15:59:31.209Z,1.40
2023-04-11T16:01:57.800Z,1.35
2023-04-11T16:04:25.592Z,1.33
2023-04-11T16:06:52.544Z,1.20
2023-04-11T16:09:19.181Z,1.00
2023-04-11T16:11:45.801Z,1.20
2023-04-11T16:14:12.263Z,0.90
2023-04-11T16:16:39.890Z,1.15
2023-04-11T16:19:07.025Z,1.00
2023-04-11T16:21:39.624Z,0.93
2023-04-11T16:24:06.228Z,1.58
2023-04-11T16:26:32.753Z,1.23
2023-04-11T16:28:59.184Z,1.25
2023-04-11T16:31:25.752Z,1.27
2023-04-11T16:33:58.301Z,1.20
2023-04-11T16:36:26.701Z,1.27
2023-04-11T16:38:53.270Z,1.55
2023-04-11T16:41:19.946Z,1.70
2023-04-11T16:43:46.364Z,2.00
2023-04-11T16:46:14.410Z,1.85
2023-04-11T16:48:42.425Z,2.28
2023-04-11T16:51:13.262Z,10.50
2023-04-11T16:53:40.563Z,4.07
2023-04-11T16:56:08.350Z,2.00
2023-04-11T16:58:34.770Z,1.17
2023-04-11T17:01:01.832Z,1.60
2023-04-11T17:03:28.657Z,1.70
2023-04-11T17:06:40.260Z,1.40
2023-04-11T17:09:06.791Z,1.40
2023-04-11T17:11:34.867Z,1.30
2023-04-11T17:14:03.548Z,1.75
2023-04-11T17:16:30.636Z,1.50
2023-04-11T17:21:53.228Z,1.90
2023-04-11T17:24:22.293Z,1.60
2023-04-11T17:26:48.686Z,1.85
2023-04-11T17:29:15.541Z,1.52
2023-04-11T17:31:42.257Z,2.15
2023-04-11T17:34:09.713Z,2.17
2023-04-11T17:36:42.507Z,2.40
2023-04-11T17:39:17.186Z,2.17
2023-04-11T17:41:45.423Z,2.25
2023-04-11T17:44:12.208Z,1.60
2023-04-11T17:46:39.692Z,1.83
2023-04-11T17:49:06.143Z,1.50
2023-04-11T17:51:32.505Z,1.02
2023-04-11T17:53:59.411Z,0.90
2023-04-11T17:56:27.300Z,0.88
2023-04-11T17:58:54.800Z,1.00
2023-04-11T18:01:21.275Z,0.65
2023-04-11T18:03:50.342Z,0.73
2023-04-11T18:10:12.230Z,0.90
2023-04-11T18:16:26.457Z,1.02
2023-04-11T18:19:06.573Z,1.10
2023-04-11T18:21:34.415Z,0.90
2023-04-11T18:24:01.936Z,0.75
2023-04-11T18:26:29.762Z,1.10
2023-04-11T18:28:57.670Z,0.95
2023-04-11T18:31:25.805Z,1.25
2023-04-11T18:33:54.144Z,1.05
2023-04-11T19:10:41.431Z,1.25
2023-04-11T19:13:09.752Z,1.58
2023-04-11T19:15:36.510Z,1.00
2023-04-11T19:18:03.327Z,1.45
2023-04-11T19:20:30.468Z,2.17
2023-04-11T19:22:57.444Z,2.80
2023-04-11T19:25:24.377Z,1.50
2023-04-11T19:31:32.516Z,1.92
2023-04-11T19:34:00.191Z,1.38
2023-04-11T19:36:29.524Z,1.43
2023-04-11T19:38:56.040Z,1.70
2023-04-11T19:41:22.804Z,1.40
2023-04-11T19:43:49.370Z,1.60
2023-04-11T19:51:06.200Z,1.50
2023-04-11T19:53:36.124Z,1.80
2023-04-11T19:56:07.042Z,1.88
2023-04-11T20:12:47.598Z,2.50
2023-04-11T20:22:52.617Z,2.65
2023-04-11T20:25:19.185Z,2.95
2023-04-11T20:27:45.866Z,2.50
2023-04-11T20:30:13.890Z,2.40
2023-04-11T20:32:41.683Z,2.50
2023-04-11T20:35:11.907Z,3.38
2023-04-11T20:37:40.206Z,3.15
2023-04-11T20:40:08.317Z,2.22
2023-04-11T20:42:35.354Z,2.63
2023-04-11T20:45:53.533Z,3.65
2023-04-11T20:55:52.904Z,4.15
2023-04-11T21:02:44.616Z,5.80
2023-04-11T21:05:12.594Z,4.03
2023-04-11T21:07:42.327Z,3.70
2023-04-11T21:10:10.456Z,3.80
2023-04-11T21:12:38.448Z,3.88
2023-04-11T21:15:05.444Z,4.72
2023-04-11T21:17:36.155Z,5.53
2023-04-11T21:20:40.273Z,5.28
2023-04-11T21:23:06.883Z,5.57
2023-04-11T21:25:33.498Z,4.72
2023-04-11T21:27:59.916Z,3.25
2023-04-11T21:30:26.777Z,2.20
2023-04-11T21:32:53.533Z,2.53
2023-04-11T21:47:49.525Z,3.42
2023-04-11T21:51:25.233Z,3.45
2023-04-11T21:53:51.700Z,3.53
2023-04-11T21:56:18.195Z,3.45
2023-04-11T22:09:59.737Z,2.67
2023-04-11T22:12:27.088Z,1.80
2023-04-11T22:15:59.649Z,1.42
2023-04-11T22:18:27.427Z,1.40
2023-04-11T22:20:54.376Z,1.83
2023-04-11T22:23:21.745Z,1.13
2023-04-11T22:25:57.529Z,1.45
2023-04-11T22:28:24.188Z,1.50
2023-04-11T22:30:50.681Z,2.00
2023-04-11T22:33:36.261Z,2.17
2023-04-11T22:36:02.804Z,3.13
2023-04-11T22:38:30.047Z,3.42
2023-04-11T22:40:56.605Z,3.40
2023-04-11T22:43:23.412Z,3.10
2023-04-11T22:45:49.957Z,3.05
2023-04-11T23:00:26.223Z,4.07
2023-04-11T23:02:52.891Z,2.95
2023-04-11T23:06:25.057Z,3.08
2023-04-11T23:08:54.274Z,3.05
2023-04-11T23:11:21.540Z,3.50
2023-04-11T23:13:48.062Z,3.78
2023-04-11T23:16:14.746Z,3.38
2023-04-11T23:18:41.796Z,2.95
2023-04-11T23:21:13.582Z,2.20
2023-04-11T23:23:40.936Z,1.77
2023-04-11T23:26:07.502Z,2.30
2023-04-11T23:28:34.689Z,2.15
2023-04-11T23:31:01.720Z,2.13
2023-04-11T23:33:28.294Z,1.98
2023-04-11T23:35:54.807Z,2.22
2023-04-11T23:38:22.580Z,2.80
2023-04-11T23:40:49.334Z,3.50
2023-04-11T23:43:15.985Z,3.22
2023-04-11T23:45:42.883Z,3.72
2023-04-11T23:48:09.658Z,3.35
2023-04-11T23:50:36.348Z,3.13
2023-04-11T23:53:02.792Z,2.60
